Time;durP1;ratioP1;P1;durP2;ratioP2;P2;SDS_P1;SDS_P2;PMS_P1;PMS_P2;Temp;Humidity;BMP_temperature;BMP_pressure;BME280_temperature;BME280_humidity;BME280_pressure;Samples;Min_cycle;Max_cycle;Signal;HPM_P1;HPM_P2
2022/04/30 00:02:27;;;;;;;9.03;6.80;;;;;;;3.81;81.66;98373.75;6197668;28;20217;-69
2022/04/30 00:05:31;;;;;;;5.43;4.60;;;;;;;3.78;81.43;98375.66;6191968;28;20225;-69
2022/04/30 00:08:33;;;;;;;5.10;4.40;;;;;;;3.74;81.79;98376.69;6200838;28;20726;-69
2022/04/30 00:11:35;;;;;;;7.60;3.97;;;;;;;3.70;81.39;98368.97;6193373;28;20234;-69
2022/04/30 00:14:38;;;;;;;4.67;4.13;;;;;;;3.72;81.80;98369.75;6197855;28;20706;-69
2022/04/30 00:17:41;;;;;;;5.20;4.40;;;;;;;3.75;81.70;98368.78;6191054;28;20343;-69
2022/04/30 00:20:47;;;;;;;6.40;4.67;;;;;;;3.73;81.80;98368.00;6191494;28;20830;-69
2022/04/30 00:23:49;;;;;;;8.77;3.57;;;;;;;3.68;81.38;98367.34;6197655;28;20709;-69
2022/04/30 00:26:51;;;;;;;5.53;4.10;;;;;;;3.66;81.59;98370.03;6195087;28;20225;-69
2022/04/30 00:29:54;;;;;;;5.00;3.70;;;;;;;3.63;81.87;98371.91;6196852;28;20227;-69
2022/04/30 00:32:57;;;;;;;4.43;4.00;;;;;;;3.63;81.82;98362.31;6219334;28;20392;-69
2022/04/30 00:35:59;;;;;;;4.07;3.67;;;;;;;3.62;82.02;98365.81;6208046;28;20637;-69
2022/04/30 00:39:03;;;;;;;5.10;3.53;;;;;;;3.62;81.81;98357.16;6210805;28;20712;-69
2022/04/30 00:42:11;;;;;;;4.10;3.70;;;;;;;3.61;81.77;98358.06;6212849;28;20691;-69
2022/04/30 00:45:13;;;;;;;5.00;3.93;;;;;;;3.60;81.68;98354.59;6195665;28;20228;-69
2022/04/30 00:48:16;;;;;;;4.70;3.90;;;;;;;3.59;81.97;98349.47;6194985;28;20214;-69
2022/04/30 00:51:19;;;;;;;4.47;4.03;;;;;;;3.56;81.82;98347.81;6191840;28;20572;-69
2022/04/30 00:54:24;;;;;;;5.03;3.97;;;;;;;3.52;81.99;98346.25;6201740;28;20660;-69
2022/04/30 00:57:31;;;;;;;5.33;3.83;;;;;;;3.49;82.19;98342.94;6200435;28;20235;-69
2022/04/30 01:05:10;;;;;;;6.63;4.80;;;;;;;3.52;81.98;98343.63;6199422;28;20224;-69
2022/04/30 01:08:12;;;;;;;8.57;6.73;;;;;;;3.50;82.14;98337.63;6200906;28;20233;-69
2022/04/30 01:11:15;;;;;;;12.07;7.20;;;;;;;3.50;82.44;98335.00;6191309;28;20231;-69
2022/04/30 01:14:18;;;;;;;9.43;5.97;;;;;;;3.50;82.26;98329.78;6211845;28;20231;-69
2022/04/30 01:17:20;;;;;;;12.07;6.87;;;;;;;3.49;82.41;98329.88;6198258;28;20224;-69
2022/04/30 01:20:22;;;;;;;7.87;5.90;;;;;;;3.48;82.29;98326.44;6204457;28;20385;-69
2022/04/30 01:23:25;;;;;;;7.57;5.97;;;;;;;3.46;82.79;98315.19;6200167;28;20275;-69
2022/04/30 01:26:28;;;;;;;7.43;5.67;;;;;;;3.45;82.80;98315.25;6199564;28;20719;-69
2022/04/30 01:29:30;;;;;;;6.77;5.70;;;;;;;3.47;82.77;98316.06;6201767;28;20618;-69
2022/04/30 01:39:16;;;;;;;6.63;4.90;;;;;;;3.49;83.12;98314.22;6202857;28;20226;-69
2022/04/30 01:42:18;;;;;;;6.03;5.17;;;;;;;3.52;83.05;98312.31;6198654;28;20596;-69
2022/04/30 01:45:21;;;;;;;6.93;4.97;;;;;;;3.58;83.56;98313.84;6214269;28;20298;-69
2022/04/30 01:48:23;;;;;;;5.20;4.37;;;;;;;3.65;82.85;98310.91;6197389;28;20242;-69
2022/04/30 01:51:25;;;;;;;8.47;4.80;;;;;;;3.63;82.79;98304.91;6215631;28;20234;-69
2022/04/30 01:54:27;;;;;;;9.77;5.13;;;;;;;3.57;83.35;98306.94;6194962;28;20330;-69
2022/04/30 01:57:29;;;;;;;6.73;4.37;;;;;;;3.52;83.56;98301.03;6203866;28;20306;-69
2022/04/30 02:00:32;;;;;;;7.43;5.13;;;;;;;3.49;82.95;98301.19;6195141;28;20239;-69
2022/04/30 02:03:34;;;;;;;5.60;4.93;;;;;;;3.43;83.58;98297.06;6198674;28;20321;-69
2022/04/30 02:06:37;;;;;;;7.03;5.03;;;;;;;3.43;83.31;98296.22;6187201;28;20260;-69
2022/04/30 02:09:39;;;;;;;5.90;5.27;;;;;;;3.44;83.78;98298.75;6204403;28;20266;-69
2022/04/30 02:12:41;;;;;;;6.07;4.67;;;;;;;3.43;83.23;98294.44;6205912;28;20277;-69
2022/04/30 02:15:45;;;;;;;6.10;5.27;;;;;;;3.42;83.66;98294.50;6213592;28;20234;-69
2022/04/30 02:18:51;;;;;;;5.53;4.77;;;;;;;3.39;83.75;98285.06;6214628;28;20235;-69
2022/04/30 02:21:59;;;;;;;7.27;5.07;;;;;;;3.36;83.81;98279.97;6197509;28;20231;-69
2022/04/30 02:25:03;;;;;;;6.53;5.47;;;;;;;3.32;84.84;98294.88;6205184;28;20233;-69
2022/04/30 02:28:08;;;;;;;7.17;5.10;;;;;;;3.31;84.48;98287.13;6190890;28;20240;-69
2022/04/30 02:31:25;;;;;;;8.10;4.77;;;;;;;3.34;84.61;98287.00;6193398;28;20227;-69
2022/04/30 02:34:27;;;;;;;6.33;4.80;;;;;;;3.34;84.77;98287.00;6199953;28;20233;-69
2022/04/30 02:37:29;;;;;;;5.83;5.23;;;;;;;3.38;85.11;98282.53;6190263;28;20246;-69
2022/04/30 02:40:34;;;;;;;7.50;4.90;;;;;;;3.43;85.02;98281.41;6192829;28;20718;-69
2022/04/30 02:43:37;;;;;;;6.40;5.70;;;;;;;3.41;85.20;98270.16;6190963;28;20223;-70
2022/04/30 02:46:39;;;;;;;6.40;4.93;;;;;;;3.34;84.83;98264.38;6201963;28;20235;-69
2022/04/30 02:49:41;;;;;;;6.17;5.57;;;;;;;3.31;84.90;98259.28;6202512;28;20322;-69
2022/04/30 02:52:44;;;;;;;8.90;4.40;;;;;;;3.30;84.90;98260.19;6204423;28;20235;-69
2022/04/30 02:55:46;;;;;;;6.43;4.67;;;;;;;3.30;85.03;98260.19;6214512;28;20227;-69
2022/04/30 03:02:08;;;;;;;6.93;5.40;;;;;;;3.20;85.12;98258.88;6212941;28;20247;-69
2022/04/30 03:05:24;;;;;;;9.63;5.87;;;;;;;3.17;85.38;98260.78;6203361;28;20220;-69
2022/04/30 03:08:26;;;;;;;8.53;5.43;;;;;;;3.11;85.14;98255.81;6203749;28;20233;-70
2022/04/30 03:11:28;;;;;;;6.13;5.40;;;;;;;3.08;84.85;98255.94;6209010;28;20717;-68
2022/04/30 03:14:30;;;;;;;6.03;4.90;;;;;;;3.07;85.05;98256.84;6203471;28;20758;-69
2022/04/30 03:24:17;;;;;;;5.90;4.70;;;;;;;3.00;85.23;98255.38;6204836;28;20227;-69
2022/04/30 03:27:20;;;;;;;6.60;4.93;;;;;;;2.96;85.11;98254.69;6202255;28;20225;-69
2022/04/30 03:30:22;;;;;;;6.77;5.30;;;;;;;2.92;85.31;98247.88;6198434;28;20233;-69
2022/04/30 03:33:26;;;;;;;8.13;5.63;;;;;;;2.87;85.25;98248.09;6206376;28;20230;-69
2022/04/30 03:36:29;;;;;;;11.37;5.20;;;;;;;2.86;85.36;98248.16;6198772;28;20697;-70
2022/04/30 03:39:31;;;;;;;7.67;4.97;;;;;;;2.83;85.23;98253.47;6194610;28;20316;-69
2022/04/30 03:42:36;;;;;;;6.23;4.77;;;;;;;2.79;85.10;98257.97;6215339;28;20247;-69
2022/04/30 03:45:37;;;;;;;6.70;5.30;;;;;;;2.77;85.36;98256.34;6206139;28;20231;-70
2022/04/30 03:48:40;;;;;;;6.33;4.77;;;;;;;2.75;85.35;98265.97;6185158;28;20598;-69
2022/04/30 03:51:42;;;;;;;6.93;5.20;;;;;;;2.76;85.40;98263.31;6198438;28;20241;-69
2022/04/30 03:54:44;;;;;;;10.63;5.97;;;;;;;2.78;85.54;98265.84;6204002;28;20327;-69
2022/04/30 03:57:47;;;;;;;9.30;5.60;;;;;;;2.79;85.39;98265.81;6211253;28;20708;-69
2022/04/30 04:00:49;;;;;;;7.17;4.97;;;;;;;2.86;85.46;98269.84;6222011;28;20228;-69
2022/04/30 04:03:51;;;;;;;5.70;4.97;;;;;;;2.85;85.27;98267.28;6203812;28;20253;-69
2022/04/30 04:06:53;;;;;;;6.83;5.03;;;;;;;2.77;85.11;98266.75;6187219;28;20237;-69
2022/04/30 04:09:55;;;;;;;7.23;5.60;;;;;;;2.75;85.28;98261.59;6186529;28;20238;-69
2022/04/30 04:17:37;;;;;;;15.23;8.60;;;;;;;2.77;85.15;98264.16;6189106;28;20574;-69
2022/04/30 04:19:40;;;;;;;6.33;5.20;;;;;;;2.81;85.10;98257.91;6209422;28;20232;-69
2022/04/30 04:22:42;;;;;;;7.97;6.10;;;;;;;2.86;85.23;98258.56;6215898;28;20617;-68
2022/04/30 04:26:00;;;;;;;5.13;4.53;;;;;;;2.88;85.05;98256.75;6215024;28;20327;-69
2022/04/30 04:29:02;;;;;;;5.73;5.00;;;;;;;2.93;84.91;98249.59;6207280;28;20316;-69
2022/04/30 04:32:04;;;;;;;6.13;5.03;;;;;;;3.01;85.09;98254.47;6188769;28;20718;-69
2022/04/30 04:35:07;;;;;;;5.83;4.87;;;;;;;3.02;84.97;98251.81;6183947;28;20233;-69
2022/04/30 04:38:09;;;;;;;7.63;5.70;;;;;;;3.08;84.72;98255.94;6187566;28;20230;-69
2022/04/30 04:41:12;;;;;;;8.23;6.50;;;;;;;3.12;85.04;98257.50;6228494;28;20230;-69
2022/04/30 04:44:14;;;;;;;6.60;5.10;;;;;;;3.22;85.06;98254.44;6211724;28;20651;-69
2022/04/30 04:47:16;;;;;;;5.57;4.93;;;;;;;3.31;84.52;98258.44;6220816;28;20698;-69
2022/04/30 04:50:18;;;;;;;13.07;7.90;;;;;;;3.36;84.96;98240.84;6212139;28;20227;-69
2022/04/30 04:53:20;;;;;;;6.83;5.70;;;;;;;3.44;84.36;98243.97;6206861;28;20791;-69
2022/04/30 04:56:23;;;;;;;6.60;5.17;;;;;;;3.51;84.57;98253.22;6210905;28;20255;-68
2022/04/30 04:59:25;;;;;;;5.53;5.03;;;;;;;3.59;84.45;98256.34;6223260;28;20702;-69
2022/04/30 05:02:27;;;;;;;8.17;5.00;;;;;;;3.63;84.49;98246.63;6200933;28;20240;-69
2022/04/30 05:05:29;;;;;;;6.23;5.10;;;;;;;3.68;84.09;98249.91;6178661;28;20317;-69
2022/04/30 05:08:31;;;;;;;6.70;4.83;;;;;;;3.77;84.54;98256.47;6192652;28;20229;-69
2022/04/30 05:11:33;;;;;;;11.10;7.63;;;;;;;3.87;84.00;98255.16;6198189;28;20711;-70
2022/04/30 05:14:35;;;;;;;5.77;5.20;;;;;;;3.95;83.93;98255.66;6197716;28;20231;-70
2022/04/30 05:17:37;;;;;;;7.37;5.50;;;;;;;4.02;83.99;98252.69;6208160;28;20233;-69
2022/04/30 05:20:40;;;;;;;6.50;5.03;;;;;;;4.09;83.62;98248.88;6225771;28;20609;-69
2022/04/30 05:23:44;;;;;;;8.40;5.10;;;;;;;4.08;83.23;98248.97;6194275;28;20227;-69
2022/04/30 05:26:49;;;;;;;5.57;5.07;;;;;;;4.14;83.44;98251.31;6199671;28;20313;-70
2022/04/30 05:29:51;;;;;;;9.33;5.60;;;;;;;4.25;83.61;98253.44;6211351;28;20233;-69
2022/04/30 05:32:53;;;;;;;8.10;5.60;;;;;;;4.35;82.87;98262.53;6225090;28;20728;-70
2022/04/30 05:35:57;;;;;;;8.53;5.47;;;;;;;4.47;83.23;98261.97;6217170;28;20236;-69
2022/04/30 05:38:59;;;;;;;6.60;5.07;;;;;;;4.54;82.33;98262.53;6202010;28;20289;-69
2022/04/30 05:42:01;;;;;;;5.53;4.73;;;;;;;4.57;82.37;98263.25;6207477;28;20805;-69
2022/04/30 05:45:04;;;;;;;8.37;5.43;;;;;;;4.59;82.18;98265.78;6214214;28;20209;-69
2022/04/30 05:48:07;;;;;;;5.63;4.90;;;;;;;4.64;82.16;98267.25;6181907;28;20960;-69
2022/04/30 05:51:08;;;;;;;6.40;5.20;;;;;;;4.76;82.26;98256.22;6204163;28;20249;-70
2022/04/30 05:54:10;;;;;;;7.53;5.07;;;;;;;4.91;81.50;98262.47;6212643;28;20243;-69
2022/04/30 05:57:12;;;;;;;6.63;4.97;;;;;;;5.09;81.42;98261.56;6197280;28;20243;-69
2022/04/30 06:00:16;;;;;;;9.00;5.33;;;;;;;5.27;81.32;98254.59;6218968;28;20263;-69
2022/04/30 06:03:20;;;;;;;5.23;4.50;;;;;;;5.41;80.40;98254.75;6209784;28;20194;-69
2022/04/30 06:06:24;;;;;;;6.27;5.13;;;;;;;5.58;80.85;98253.91;6188424;28;20229;-69
2022/04/30 06:09:26;;;;;;;5.87;4.63;;;;;;;5.78;80.88;98248.50;6199730;28;20238;-69
2022/04/30 06:12:29;;;;;;;6.93;4.73;;;;;;;5.96;80.48;98245.88;6210626;28;20230;-69
2022/04/30 06:15:31;;;;;;;5.50;5.00;;;;;;;6.11;79.79;98235.41;6218361;28;20234;-69
2022/04/30 06:18:33;;;;;;;8.03;5.47;;;;;;;6.25;80.01;98248.63;6204997;28;20308;-69
2022/04/30 06:21:56;;;;;;;5.80;4.93;;;;;;;6.49;79.38;98237.75;6217088;28;20244;-69
2022/04/30 06:24:58;;;;;;;5.53;4.67;;;;;;;6.67;78.87;98236.72;6191535;28;20243;-69
2022/04/30 06:28:01;;;;;;;7.33;4.83;;;;;;;6.85;79.17;98233.06;6221331;28;20226;-69
2022/04/30 06:31:03;;;;;;;7.60;4.93;;;;;;;7.09;78.54;98230.81;6205650;28;20375;-69
2022/04/30 06:34:05;;;;;;;9.50;6.50;;;;;;;7.35;78.06;98230.16;6201767;28;20232;-69
2022/04/30 06:37:08;;;;;;;8.93;5.77;;;;;;;7.61;77.28;98223.38;6209615;28;20652;-69
2022/04/30 06:40:12;;;;;;;8.80;5.53;;;;;;;7.88;76.53;98222.66;6226853;28;20231;-68
2022/04/30 06:43:14;;;;;;;6.27;5.30;;;;;;;8.15;75.59;98220.97;6194353;28;20239;-69
2022/04/30 06:46:19;;;;;;;7.73;5.30;;;;;;;8.47;74.60;98221.63;6188445;28;20230;-69
2022/04/30 06:49:23;;;;;;;5.90;5.30;;;;;;;8.80;73.66;98221.22;6199853;28;20267;-69
2022/04/30 06:52:26;;;;;;;5.60;4.60;;;;;;;9.19;72.88;98220.41;6216341;28;20238;-70
2022/04/30 06:58:54;;;;;;;5.83;4.17;;;;;;;9.97;69.40;98210.72;6182753;28;20243;-70
2022/04/30 07:02:05;;;;;;;5.57;3.70;;;;;;;10.37;67.52;98210.59;6209864;28;20223;-69
2022/04/30 07:05:12;;;;;;;5.10;3.70;;;;;;;10.62;66.99;98207.88;6204963;28;20227;-70
2022/04/30 07:08:14;;;;;;;5.17;4.50;;;;;;;10.82;66.62;98212.56;6204957;28;20228;-69
2022/04/30 07:11:17;;;;;;;5.47;4.10;;;;;;;11.07;66.35;98215.09;6211434;28;20268;-68
2022/04/30 07:14:19;;;;;;;4.40;4.00;;;;;;;11.36;65.36;98210.31;6183416;28;20232;-69
2022/04/30 07:17:22;;;;;;;6.37;4.20;;;;;;;11.82;63.00;98205.03;6191471;28;20273;-69
2022/04/30 07:20:24;;;;;;;4.77;3.83;;;;;;;12.31;61.25;98210.94;6200257;28;20236;-69
2022/04/30 07:23:26;;;;;;;5.53;3.90;;;;;;;12.74;59.17;98203.06;6189638;28;20247;-69
2022/04/30 07:26:28;;;;;;;4.53;3.20;;;;;;;13.14;58.57;98206.84;6227856;28;20228;-69
2022/04/30 07:29:31;;;;;;;7.80;4.57;;;;;;;13.44;51.64;98194.66;6230872;28;20318;-69
2022/04/30 07:32:34;;;;;;;5.93;4.87;;;;;;;13.79;52.48;98202.28;6217171;28;20596;-69
2022/04/30 07:35:35;;;;;;;4.93;4.40;;;;;;;14.09;52.85;98206.78;6215071;28;20271;-69
2022/04/30 07:38:39;;;;;;;6.50;4.77;;;;;;;14.02;49.88;98202.00;6221756;28;20226;-70
2022/04/30 07:41:41;;;;;;;10.27;6.37;;;;;;;13.86;45.91;98193.69;6196104;28;20219;-69
2022/04/30 07:44:43;;;;;;;6.77;4.67;;;;;;;14.23;47.52;98194.00;6229292;28;20242;-69
2022/04/30 07:47:47;;;;;;;5.60;4.03;;;;;;;14.83;48.05;98199.41;6181705;28;20236;-69
2022/04/30 07:50:49;;;;;;;5.90;4.00;;;;;;;15.02;49.16;98196.75;6202170;28;20232;-69
2022/04/30 07:53:52;;;;;;;6.87;5.40;;;;;;;15.23;45.36;98188.66;6192454;28;20228;-70
2022/04/30 07:56:56;;;;;;;4.57;3.67;;;;;;;15.65;45.73;98191.91;6190483;28;20678;-69
2022/04/30 07:59:58;;;;;;;7.13;5.13;;;;;;;16.10;43.98;98205.38;6209402;28;20238;-69
2022/04/30 08:03:01;;;;;;;7.50;6.13;;;;;;;15.92;40.35;98196.47;6211965;28;20241;-68
2022/04/30 08:06:05;;;;;;;8.23;5.73;;;;;;;15.85;40.61;98188.22;6210154;28;20234;-69
2022/04/30 08:09:13;;;;;;;8.63;6.53;;;;;;;16.11;41.51;98186.59;6229063;28;20227;-68
2022/04/30 08:12:18;;;;;;;8.80;6.50;;;;;;;16.31;41.22;98178.53;6217777;28;20225;-69
2022/04/30 08:15:26;;;;;;;6.63;5.93;;;;;;;16.19;42.13;98177.88;6187603;28;20240;-69
2022/04/30 08:18:28;;;;;;;6.80;4.90;;;;;;;16.86;42.10;98184.72;6192830;28;20213;-69
2022/04/30 08:21:30;;;;;;;7.67;5.83;;;;;;;17.05;39.45;98181.09;6200832;28;20244;-69
2022/04/30 08:24:33;;;;;;;7.17;5.77;;;;;;;17.11;37.50;98181.31;6201109;28;20220;-69
2022/04/30 08:27:36;;;;;;;8.10;6.07;;;;;;;17.43;38.83;98175.44;6201269;28;20297;-70
2022/04/30 08:30:41;;;;;;;9.53;5.90;;;;;;;16.92;37.53;98176.97;6194141;28;20290;-69
2022/04/30 08:33:46;;;;;;;7.87;6.40;;;;;;;17.43;38.79;98179.94;6202590;28;20225;-69
2022/04/30 08:36:49;;;;;;;7.70;5.57;;;;;;;17.72;37.93;98180.53;6201121;28;20236;-69
2022/04/30 08:39:51;;;;;;;7.17;6.30;;;;;;;17.15;37.46;98173.84;6193262;28;20244;-70
2022/04/30 08:42:55;;;;;;;9.47;5.97;;;;;;;16.89;37.62;98177.25;6202755;28;20236;-69
2022/04/30 08:46:00;;;;;;;7.50;5.37;;;;;;;17.59;37.62;98175.56;6194061;28;20232;-69
2022/04/30 08:49:02;;;;;;;6.23;5.10;;;;;;;18.53;37.64;98177.50;6195203;28;20232;-68
2022/04/30 08:52:05;;;;;;;6.87;6.10;;;;;;;18.11;34.35;98174.78;6222850;28;20274;-70
2022/04/30 08:55:08;;;;;;;7.13;5.33;;;;;;;17.75;36.05;98169.56;6216412;28;20240;-69
2022/04/30 08:58:10;;;;;;;9.00;4.80;;;;;;;18.16;35.92;98167.97;6219550;28;20272;-69
2022/04/30 09:01:12;;;;;;;6.73;5.70;;;;;;;18.76;36.14;98166.09;6189458;28;20228;-70
2022/04/30 09:04:16;;;;;;;10.07;5.97;;;;;;;19.23;35.48;98157.47;6200318;28;20232;-70
2022/04/30 09:07:20;;;;;;;8.23;4.80;;;;;;;19.31;33.64;98162.00;6198316;28;20239;-71
2022/04/30 09:10:24;;;;;;;7.43;5.20;;;;;;;19.38;33.17;98150.44;6181822;28;20720;-71
2022/04/30 09:13:26;;;;;;;8.07;5.40;;;;;;;19.39;33.31;98151.28;6211927;28;20676;-73
2022/04/30 09:16:29;;;;;;;5.97;4.60;;;;;;;19.92;33.95;98150.78;6218732;28;20228;-69
2022/04/30 09:19:44;;;;;;;9.20;7.30;;;;;;;20.37;31.60;98143.97;6194072;28;20237;-69
2022/04/30 09:22:46;;;;;;;5.83;4.93;;;;;;;19.95;29.96;98133.53;6194055;28;20731;-70
2022/04/30 09:25:55;;;;;;;5.53;4.67;;;;;;;19.74;33.80;98132.25;6181534;28;20246;-71
2022/04/30 09:29:01;;;;;;;5.60;4.80;;;;;;;19.85;31.77;98129.22;6200192;28;20228;-69
2022/04/30 09:32:03;;;;;;;7.37;4.57;;;;;;;20.13;31.57;98126.13;6196034;28;20747;-70
2022/04/30 09:38:40;;;;;;;7.73;4.53;;;;;;;20.80;31.42;98123.81;6182696;28;20450;-71
2022/04/30 09:41:42;;;;;;;5.50;4.87;;;;;;;21.12;30.84;98120.09;6182665;28;20235;-68
2022/04/30 09:44:44;;;;;;;3.97;3.67;;;;;;;21.34;30.69;98109.41;6186102;28;20228;-69
2022/04/30 09:47:48;;;;;;;5.13;4.63;;;;;;;21.93;31.64;98101.44;6217221;28;20232;-70
2022/04/30 09:54:13;;;;;;;6.83;4.00;;;;;;;22.37;30.78;98098.75;6197733;28;20556;-71
2022/04/30 09:57:19;;;;;;;8.30;5.03;;;;;;;22.24;30.03;98087.84;6195367;28;20263;-70
2022/04/30 10:00:27;;;;;;;5.90;5.30;;;;;;;21.88;30.25;98084.19;6188635;28;20232;-70
2022/04/30 10:03:33;;;;;;;7.00;4.43;;;;;;;22.08;30.46;98079.94;6203255;28;20230;-70
2022/04/30 10:06:44;;;;;;;4.37;3.90;;;;;;;22.32;30.21;98086.91;6208309;28;20251;-70
2022/04/30 10:10:01;;;;;;;5.82;4.75;;;;;;;22.70;28.77;98077.63;6210322;28;20536;-70
2022/04/30 10:13:12;;;;;;;5.90;4.83;;;;;;;22.94;28.28;98076.50;6199190;28;20700;-70
2022/04/30 10:16:34;;;;;;;6.37;4.00;;;;;;;22.98;29.59;98075.06;6184119;28;20267;-70
2022/04/30 10:19:36;;;;;;;5.77;5.07;;;;;;;23.01;29.13;98066.59;6188093;28;20236;-70
2022/04/30 10:22:50;;;;;;;7.23;5.10;;;;;;;22.60;28.89;98074.41;6201007;28;20228;-70
2022/04/30 10:25:54;;;;;;;6.77;5.10;;;;;;;21.86;30.62;98062.06;6193573;28;20249;-71
2022/04/30 10:29:16;;;;;;;5.97;5.10;;;;;;;21.37;30.92;98062.53;6210756;28;20503;-70
2022/04/30 10:32:31;;;;;;;8.17;5.23;;;;;;;21.62;30.96;98055.09;6212018;28;20307;-70
2022/04/30 10:40:11;;;;;;;10.87;6.10;;;;;;;21.84;31.08;98048.81;6205524;28;20213;-70
2022/04/30 10:43:37;;;;;;;6.83;4.67;;;;;;;21.94;30.59;98043.16;6214956;28;20239;-70
2022/04/30 10:46:45;;;;;;;5.77;4.57;;;;;;;22.62;30.31;98050.00;6200802;28;20231;-71
2022/04/30 10:49:49;;;;;;;6.23;4.10;;;;;;;22.19;29.29;98041.84;6200474;28;20224;-70
2022/04/30 10:52:51;;;;;;;6.13;4.20;;;;;;;22.36;30.85;98029.03;6204881;28;20225;-70
2022/04/30 10:55:54;;;;;;;4.73;3.90;;;;;;;23.28;29.63;98029.97;6214464;28;20310;-70
2022/04/30 10:58:56;;;;;;;6.53;4.13;;;;;;;23.81;28.45;98033.91;6199586;28;20229;-71
2022/04/30 11:01:59;;;;;;;5.90;4.43;;;;;;;24.06;26.37;98026.16;6220137;28;20228;-69
2022/04/30 11:05:02;;;;;;;6.83;5.03;;;;;;;23.34;25.96;98009.50;6199878;28;20622;-70
2022/04/30 11:08:05;;;;;;;6.63;3.80;;;;;;;23.39;26.96;98013.28;6209714;28;20243;-72
2022/04/30 11:11:08;;;;;;;5.17;3.83;;;;;;;23.62;26.37;98014.91;6218807;28;20317;-71
2022/04/30 11:14:11;;;;;;;8.90;4.33;;;;;;;23.07;25.78;98008.44;6209805;28;20228;-71
2022/04/30 11:17:13;;;;;;;5.03;3.40;;;;;;;23.63;27.34;98006.63;6205415;28;20238;-71
2022/04/30 11:20:23;;;;;;;5.03;3.93;;;;;;;23.50;24.84;98009.25;6207190;28;20225;-71
2022/04/30 11:23:25;;;;;;;4.77;4.30;;;;;;;23.68;26.76;98000.63;6182652;28;20241;-71
2022/04/30 11:26:29;;;;;;;4.20;3.07;;;;;;;23.96;26.11;98006.00;6181334;28;20232;-71
2022/04/30 11:29:35;;;;;;;3.40;2.90;;;;;;;24.29;25.68;97998.91;6204333;28;20226;-71
2022/04/30 11:32:37;;;;;;;6.10;3.30;;;;;;;24.11;26.07;97988.63;6191965;28;20609;-71
2022/04/30 11:35:39;;;;;;;3.77;3.10;;;;;;;24.43;25.84;97984.44;6218145;28;20270;-71
2022/04/30 11:38:50;;;;;;;4.03;3.20;;;;;;;24.12;26.20;97984.91;6213742;28;20374;-72
2022/04/30 11:41:54;;;;;;;6.00;3.03;;;;;;;23.79;25.38;97986.59;6190637;28;20225;-71
2022/04/30 11:44:56;;;;;;;4.20;3.10;;;;;;;23.37;26.16;97976.78;6206217;28;20224;-70
2022/04/30 11:47:59;;;;;;;6.03;3.87;;;;;;;22.93;26.57;97982.47;6202199;28;20607;-70
2022/04/30 11:51:01;;;;;;;3.70;3.03;;;;;;;22.57;27.29;97977.09;6190747;28;20233;-70
2022/04/30 11:54:08;;;;;;;4.50;3.27;;;;;;;22.56;26.78;97968.19;6214886;28;20263;-67
2022/04/30 11:57:14;;;;;;;4.17;3.27;;;;;;;23.11;26.36;97953.19;6187991;28;20241;-67
2022/04/30 12:00:18;;;;;;;4.53;3.03;;;;;;;23.61;26.06;97945.88;6198663;28;20287;-72
2022/04/30 13:02:49;;;;;;;3.22;2.35;;;;;;;25.10;23.30;97894.38;4055737;28;20229;-71
2022/04/30 13:05:52;;;;;;;2.47;2.28;;;;;;;24.89;23.54;97895.38;6218779;28;20713;-70
2022/04/30 13:15:45;;;;;;;3.47;2.50;;;;;;;24.82;23.15;97891.03;6204069;28;20756;-69
2022/04/30 13:18:47;;;;;;;3.17;2.20;;;;;;;24.95;22.86;97877.56;6201210;28;20220;-69
2022/04/30 13:21:49;;;;;;;2.53;2.33;;;;;;;24.84;23.73;97880.88;6200203;28;20574;-69
2022/04/30 13:24:51;;;;;;;2.65;2.20;;;;;;;25.58;23.06;97881.34;6199290;28;20228;-69
2022/04/30 13:27:55;;;;;;;3.47;2.40;;;;;;;26.06;22.02;97873.66;6200055;28;20329;-69
2022/04/30 13:30:57;;;;;;;3.35;2.33;;;;;;;26.72;21.57;97865.13;6185709;28;20701;-69
2022/04/30 13:34:01;;;;;;;3.42;2.05;;;;;;;27.78;20.13;97873.03;6203569;28;20327;-69
2022/04/30 13:37:03;;;;;;;3.72;2.13;;;;;;;28.00;19.28;97864.41;6197873;28;20221;-69
2022/04/30 13:40:06;;;;;;;2.25;1.98;;;;;;;27.38;19.85;97869.09;6183193;28;20228;-69
2022/04/30 13:43:08;;;;;;;2.00;1.67;;;;;;;28.21;19.15;97861.22;6201123;28;20231;-69
2022/04/30 13:46:10;;;;;;;3.47;2.00;;;;;;;28.80;18.64;97859.50;6198540;28;20600;-68
2022/04/30 13:49:13;;;;;;;2.15;1.58;;;;;;;29.72;17.81;97855.06;6211654;28;20746;-69
2022/04/30 13:52:15;;;;;;;2.10;1.90;;;;;;;30.78;16.59;97846.16;6215316;28;20350;-69
2022/04/30 13:55:17;;;;;;;1.80;1.70;;;;;;;30.87;16.18;97840.28;6189646;28;20359;-69
2022/04/30 13:58:19;;;;;;;2.83;1.90;;;;;;;31.48;16.09;97850.22;6219297;28;20712;-70
2022/04/30 14:01:21;;;;;;;4.35;1.92;;;;;;;32.64;14.00;97831.59;6208377;28;20244;-69
2022/04/30 15:04:07;;;;;;;2.10;1.85;;;;;;;32.27;14.40;97798.75;5715733;28;20253;-83
2022/04/30 15:07:10;;;;;;;3.08;1.80;;;;;;;32.39;13.54;97799.41;6206498;28;20256;-84
2022/04/30 15:10:12;;;;;;;4.72;2.10;;;;;;;33.39;13.60;97799.59;6197811;28;20225;-83
2022/04/30 15:13:14;;;;;;;1.98;1.73;;;;;;;34.02;12.60;97795.72;6197697;28;20886;-84
2022/04/30 15:16:16;;;;;;;3.03;1.67;;;;;;;34.14;12.41;97799.03;6200026;28;20310;-84
2022/04/30 15:19:18;;;;;;;2.67;2.00;;;;;;;34.70;12.61;97793.59;6220988;28;20447;-84
2022/04/30 15:22:20;;;;;;;2.17;1.60;;;;;;;34.21;12.81;97791.38;6197793;28;20237;-84
2022/04/30 15:25:22;;;;;;;2.38;1.58;;;;;;;34.34;12.49;97799.06;6203078;28;20228;-84
2022/04/30 15:28:27;;;;;;;2.65;1.52;;;;;;;33.54;12.95;97778.56;6189275;28;20685;-84
2022/04/30 15:31:29;;;;;;;1.85;1.58;;;;;;;32.54;14.34;97772.19;6205485;28;20232;-84
2022/04/30 15:34:34;;;;;;;1.90;1.52;;;;;;;30.09;16.79;97785.59;6204909;28;20330;-84
2022/04/30 15:37:37;;;;;;;6.45;2.15;;;;;;;27.49;18.49;97784.31;6206029;28;20233;-84
2022/04/30 15:40:40;;;;;;;2.42;2.03;;;;;;;25.52;21.12;97786.78;6204566;28;20228;-83
2022/04/30 15:43:42;;;;;;;2.17;1.60;;;;;;;26.17;20.04;97787.44;6174279;28;20224;-83
2022/04/30 15:53:56;;;;;;;1.90;1.70;;;;;;;30.32;16.28;97778.34;6196529;28;20228;-83
2022/04/30 15:57:02;;;;;;;1.90;1.58;;;;;;;27.53;18.46;97782.81;6193166;28;20340;-83
2022/04/30 16:00:05;;;;;;;2.72;1.90;;;;;;;25.40;20.96;97778.53;6201778;28;20240;-85
2022/04/30 16:03:10;;;;;;;2.75;1.83;;;;;;;23.96;22.36;97777.63;6204840;28;20283;-84
2022/04/30 16:06:13;;;;;;;2.00;1.67;;;;;;;23.45;23.06;97774.59;6188264;28;20724;-83
2022/04/30 16:09:15;;;;;;;2.33;1.80;;;;;;;22.98;23.43;97775.41;6188026;28;20247;-86
2022/04/30 16:12:17;;;;;;;1.77;1.40;;;;;;;22.62;23.82;97776.41;6196579;28;20231;-87
2022/04/30 16:15:19;;;;;;;2.10;1.80;;;;;;;22.22;25.01;97777.97;6199552;28;20213;-84
2022/04/30 16:18:22;;;;;;;5.13;1.63;;;;;;;21.76;25.79;97772.13;6199400;28;20247;-84
2022/04/30 16:21:25;;;;;;;2.07;1.80;;;;;;;21.44;25.61;97775.31;6198744;28;20252;-86
2022/04/30 16:24:28;;;;;;;2.30;1.80;;;;;;;21.31;25.81;97773.28;6184238;28;20303;-87
2022/04/30 16:27:30;;;;;;;3.40;2.73;;;;;;;21.20;26.13;97771.09;6218234;28;20273;-85
2022/04/30 16:30:32;;;;;;;2.03;1.80;;;;;;;21.00;27.00;97768.97;6202777;28;20325;-85
2022/04/30 16:33:34;;;;;;;2.40;1.80;;;;;;;21.06;27.02;97779.97;6204791;28;20228;-85
2022/04/30 16:36:38;;;;;;;2.60;1.80;;;;;;;20.45;27.10;97769.44;6202748;28;20235;-85
2022/04/30 16:39:39;;;;;;;3.40;1.60;;;;;;;20.03;27.21;97780.66;6202433;28;20227;-85
2022/04/30 16:42:43;;;;;;;2.30;1.60;;;;;;;20.00;27.63;97766.78;6202651;28;20243;-85
2022/04/30 16:45:45;;;;;;;2.70;1.60;;;;;;;20.01;28.00;97760.41;6204802;28;20822;-85
2022/04/30 16:48:47;;;;;;;2.43;1.90;;;;;;;19.99;28.49;97762.44;6180872;28;20259;-85
2022/04/30 16:58:30;;;;;;;3.17;1.60;;;;;;;18.79;35.61;97761.94;6195250;28;20236;-84
2022/04/30 17:01:54;;;;;;;3.83;3.30;;;;;;;18.50;36.61;97772.38;6199175;28;20248;-84
2022/04/30 17:04:57;;;;;;;1.67;1.50;;;;;;;18.12;37.97;97775.75;6146152;28;20363;-85
2022/04/30 17:07:59;;;;;;;2.53;1.70;;;;;;;17.96;37.84;97779.28;6159974;28;20229;-85
2022/04/30 17:11:01;;;;;;;3.43;1.73;;;;;;;17.91;38.51;97784.28;6158041;28;20363;-85
2022/04/30 17:14:03;;;;;;;4.57;2.33;;;;;;;17.54;39.92;97784.72;6174441;28;20229;-86
2022/04/30 17:17:05;;;;;;;3.00;1.97;;;;;;;17.23;41.30;97792.47;6161043;28;20326;-84
2022/04/30 17:20:16;;;;;;;2.63;2.27;;;;;;;17.11;42.04;97791.94;6157588;28;20720;-83
2022/04/30 17:23:18;;;;;;;2.80;1.80;;;;;;;17.00;42.92;97799.38;6162150;28;20323;-84
2022/04/30 17:26:20;;;;;;;5.03;2.30;;;;;;;16.81;43.91;97792.47;6153716;28;20840;-84
2022/04/30 17:29:23;;;;;;;2.13;1.60;;;;;;;16.64;43.94;97791.56;6145391;28;20248;-92